Hlavní strana
METAR-TAF:

METAR-TAF

Letiště :

Ouagadougou, Burkina Faso

zeměpisná šířka: 12-21N, zeměpisná délka: 001-31W, výška: 316 m

Aktuální stav počasí

Zpráva byla vytvořena před 31 minutami, v 14:00 UTC
vítr z různých směrů 4 kt
Teplota 40°C
Vlhkost vzduchu 26%
Tlak 1009 hPa
Viditelnost 10 km a více
Skoro jasno ve výšce 2000 ft
Polojasno ve výšce 2600 ft

METAR: DFFD 221400Z VRB04KT 9999 FEW020 SCT026 40/17 Q1009 NOSIG

Čas: 14:31 (14:31 UTC)

Předpověď počasí

Zpráva byla vytvořena před 3 hodinami a 31 minutami, v 11:00 UTC
Předpověď platná od 22 v 12 UTC do 23 v 18 UTC
vítr z různých směrů 8 kt
Viditelnost 10 km a více
Žádná oblačnost pod 1500 m, nevyskytují se cumulonimby.
Pravděpodobnost 30% :
Dočasný
od 22 v 22 UTC do 23 v 03 UTC
Skoro jasno ve výšce 2600 ft
Skoro jasno ve výšce 4000 ft, Cumulonimbus.
bouřka

TAF: DFFD 221100Z 2212/2318 VRB08KT CAVOK PROB30 TEMPO 2222/2303 TS FEW026 FEW040CB

Stav a předpovědi počasí z více než 4 000 letišť (zprávy METAR a TAF).

Červené a žluté tečky na mapě představují dostupné meteorologické stanice.

Když kurzor umístíte na tečku, zobrazí se název stanice.

Pak kliknutím zobrazíte stav a předpověď počasí.

Chcete-li změnit mapu, kliknutím na zelené tlačítko se znaménkem +mapu přiblížíte, kliknutím na zelené tlačítko se znaménkem – mapu oddálíte a kliknutím na zelené šipky přejdete na sousední mapy.


METAR-TAF: